Wednesday, January 17, 2018, 11:27 AM GMT
Back to Local

CWIG, Ile Aux Grues, Que.

Location: , , Canada Lat: 47.067
Local Time: 11:27 AM GMT (11:27 GMT) Lon: -70.533
Time Zone: GMT Elev: 59 ft

Show me the last for .
Show Coded

Time T Td Feel RH Dir Speed Gust Alt SLP Vis Weather Sky Remarks
2018-01-17 11:00 - - - 0 220° 6 - - - 0 None
2018-01-17 10:00 - - - 0 210° 9 - - - 0 None
2018-01-17 09:00 - - - 0 200° 10 - - - 0 None
2018-01-17 08:00 - - - 0 190° 10 - - - 0 None
2018-01-17 07:00 - - - 0 210° 8 - - - 0 None
2018-01-17 06:00 - - - 0 220° 8 - - - 0 None
2018-01-17 05:00 - - - 0 200° 10 - - - 0 None
2018-01-17 04:00 - - - 0 210° 7 - - - 0 None
2018-01-17 03:00 - - - 0 210° 7 - - - 0 None
2018-01-17 02:00 - - - 0 190° 8 - - - 0 None
2018-01-17 01:00 - - - 0 180° 7 - - - 0 None
2018-01-17 00:00 - - - 0 180° 7 - - - 0 None
2018-01-16 23:00 - - - 0 180° 6 - - - 0 None
2018-01-16 22:00 - - - 0 210° 3 - - - 0 None
2018-01-16 21:00 - - - 0 - Calm - - - 0 None
2018-01-16 20:00 - - - 0 20° 2 - - - 0 None
2018-01-16 19:00 - - - 0 40° 2 - - - 0 None
2018-01-16 18:00 - - - 0 40° 3 - - - 0 None
2018-01-16 17:00 - - - 0 40° 5 - - - 0 None
2018-01-16 16:00 - - - 0 40° 6 - - - 0 None
2018-01-16 15:00 - - - 0 60° 7 - - - 0 None
2018-01-16 14:00 - - - 0 80° 8 - - - 0 None
2018-01-16 13:00 - - - 0 70° 9 - - - 0 None
2018-01-16 12:00 - - - 0 70° 12 - - - 0 None

Support USWX by starting your Amazon purchase here.